createdAt,value
2022-10-09T00:01:23.841Z,14.43
2022-10-09T00:04:26.630Z,23.08
2022-10-09T00:07:29.266Z,15.23
2022-10-09T00:10:32.160Z,10.73
2022-10-09T00:13:35.626Z,14.05
2022-10-09T00:16:38.346Z,12.13
2022-10-09T00:19:41.181Z,13.30
2022-10-09T00:22:43.882Z,10.95
2022-10-09T00:25:56.716Z,13.20
2022-10-09T00:29:00.010Z,11.20
2022-10-09T00:32:02.714Z,16.85
2022-10-09T00:35:05.848Z,10.63
2022-10-09T00:38:08.677Z,13.68
2022-10-09T00:41:18.359Z,13.88
2022-10-09T00:44:54.318Z,17.92
2022-10-09T00:48:03.215Z,10.98
2022-10-09T00:51:05.759Z,13.55
2022-10-09T00:54:11.970Z,13.35
2022-10-09T00:57:14.563Z,14.87
2022-10-09T01:00:17.921Z,9.80
2022-10-09T01:03:20.495Z,12.13
2022-10-09T01:06:36.141Z,11.07
2022-10-09T01:09:44.729Z,12.13
2022-10-09T01:12:55.897Z,12.32
2022-10-09T01:16:17.424Z,13.02
2022-10-09T01:20:01.177Z,9.73
2022-10-09T01:23:24.500Z,11.10
2022-10-09T01:26:51.284Z,15.32
2022-10-09T01:29:59.636Z,12.25
2022-10-09T01:36:07.967Z,10.15
2022-10-09T01:39:16.157Z,11.75
2022-10-09T01:42:21.616Z,12.77
2022-10-09T01:45:24.419Z,13.85
2022-10-09T01:48:27.714Z,11.55
2022-10-09T01:51:38.723Z,17.08
2022-10-09T01:54:47.674Z,14.75
2022-10-09T01:57:58.413Z,9.55
2022-10-09T02:01:17.812Z,14.40
2022-10-09T02:04:21.424Z,11.48
2022-10-09T02:07:25.151Z,12.70
2022-10-09T02:10:28.800Z,14.02
2022-10-09T02:13:35.947Z,14.10
2022-10-09T02:16:42.138Z,13.60
2022-10-09T02:19:52.813Z,17.80
2022-10-09T02:22:58.212Z,14.85
2022-10-09T02:26:00.702Z,14.63
2022-10-09T02:29:03.773Z,17.35
2022-10-09T02:32:06.294Z,15.23
2022-10-09T02:35:09.260Z,13.80
2022-10-09T02:38:11.762Z,14.68
2022-10-09T02:41:14.492Z,14.98
2022-10-09T02:44:16.985Z,15.05
2022-10-09T02:47:19.711Z,15.00
2022-10-09T02:50:22.325Z,14.60
2022-10-09T02:53:25.080Z,15.23
2022-10-09T02:56:46.781Z,18.55
2022-10-09T02:59:49.509Z,15.77
2022-10-09T03:02:52.763Z,14.70
2022-10-09T03:06:11.351Z,17.10
2022-10-09T03:09:13.943Z,14.85
2022-10-09T03:12:21.288Z,18.92
2022-10-09T03:15:23.823Z,18.95
2022-10-09T03:18:26.516Z,15.35
2022-10-09T03:21:29.063Z,16.30
2022-10-09T03:24:31.983Z,20.17
2022-10-09T03:27:34.430Z,16.08
2022-10-09T03:30:41.063Z,20.02
2022-10-09T03:33:43.573Z,24.58
2022-10-09T03:36:46.723Z,20.15
2022-10-09T03:39:49.263Z,19.60
2022-10-09T03:42:52.153Z,22.45
2022-10-09T03:45:58.219Z,20.67
2022-10-09T03:49:03.077Z,23.17
2022-10-09T03:52:05.489Z,21.95
2022-10-09T03:55:08.758Z,19.67
2022-10-09T03:58:11.273Z,17.87
2022-10-09T04:01:14.101Z,22.42
2022-10-09T04:04:16.926Z,20.75
2022-10-09T04:07:19.450Z,22.87
2022-10-09T04:10:23.904Z,25.33
2022-10-09T04:13:26.607Z,24.80
2022-10-09T04:16:29.402Z,27.58
2022-10-09T04:19:31.936Z,28.35
2022-10-09T04:22:34.747Z,30.55
2022-10-09T04:25:37.147Z,27.00
2022-10-09T04:28:40.096Z,23.58
2022-10-09T04:31:43.323Z,29.55
2022-10-09T04:34:46.103Z,26.52
2022-10-09T04:37:48.517Z,31.40
2022-10-09T04:41:03.310Z,22.00
2022-10-09T04:44:05.810Z,21.42
2022-10-09T04:47:11.271Z,29.45
2022-10-09T04:50:15.294Z,28.77
2022-10-09T04:53:36.710Z,24.10
2022-10-09T04:56:39.694Z,23.02
2022-10-09T04:59:42.395Z,23.20
2022-10-09T05:02:44.780Z,20.45
2022-10-09T05:05:48.164Z,17.48
2022-10-09T05:08:50.800Z,20.00
2022-10-09T05:11:53.598Z,20.08
2022-10-09T05:14:56.011Z,23.30
2022-10-09T05:17:58.784Z,22.45
2022-10-09T05:21:05.005Z,18.50
2022-10-09T05:24:10.330Z,24.77
2022-10-09T05:27:13.056Z,21.62
2022-10-09T05:30:15.983Z,22.17
2022-10-09T05:33:18.380Z,26.67
2022-10-09T05:36:21.754Z,25.00
2022-10-09T05:39:24.229Z,22.33
2022-10-09T05:42:26.972Z,22.75
2022-10-09T05:45:29.492Z,22.95
2022-10-09T05:48:32.298Z,21.80
2022-10-09T05:51:37.280Z,22.08
2022-10-09T05:54:41.841Z,19.50
2022-10-09T05:57:44.345Z,25.08
2022-10-09T06:00:47.120Z,21.25
2022-10-09T06:03:51.830Z,23.23
2022-10-09T06:06:57.154Z,26.23
2022-10-09T06:09:59.968Z,16.77
2022-10-09T06:13:02.437Z,26.75
2022-10-09T06:16:05.383Z,21.25
2022-10-09T06:19:10.209Z,20.00
2022-10-09T06:22:13.048Z,20.60
2022-10-09T06:25:15.533Z,20.70
2022-10-09T06:28:18.360Z,23.42
2022-10-09T06:31:24.391Z,22.65
2022-10-09T06:34:27.414Z,21.58
2022-10-09T06:37:29.898Z,19.60
2022-10-09T06:40:37.396Z,21.98
2022-10-09T06:43:40.461Z,20.73
2022-10-09T06:46:44.489Z,22.35
2022-10-09T06:49:46.996Z,19.35
2022-10-09T06:52:50.498Z,17.42
2022-10-09T06:55:55.289Z,19.98
2022-10-09T06:59:03.190Z,20.42
2022-10-09T07:02:06.208Z,18.80
2022-10-09T07:05:09.466Z,16.27
2022-10-09T07:08:11.914Z,17.30
2022-10-09T07:11:22.627Z,17.50
2022-10-09T07:14:25.066Z,16.02
2022-10-09T07:17:28.419Z,13.93
2022-10-09T07:20:30.923Z,13.15
2022-10-09T07:23:35.427Z,13.82
2022-10-09T07:26:41.069Z,14.20
2022-10-09T07:29:43.987Z,12.77
2022-10-09T07:32:46.971Z,12.20
2022-10-09T07:35:57.851Z,12.00
2022-10-09T07:39:00.324Z,12.85
2022-10-09T07:42:03.777Z,13.10
2022-10-09T07:45:06.802Z,11.73
2022-10-09T07:48:09.526Z,11.80
2022-10-09T07:51:19.268Z,12.50
2022-10-09T07:54:22.020Z,11.38
2022-10-09T07:57:24.527Z,10.57
2022-10-09T08:00:27.549Z,12.93
2022-10-09T08:03:30.271Z,12.05
2022-10-09T08:06:33.597Z,12.40
2022-10-09T08:09:36.372Z,11.30
2022-10-09T08:12:38.779Z,11.65
2022-10-09T08:15:43.122Z,12.13
2022-10-09T08:18:46.300Z,11.12
2022-10-09T08:21:49.054Z,11.07
2022-10-09T08:24:51.609Z,10.05
2022-10-09T08:27:55.243Z,10.10
2022-10-09T08:30:57.862Z,9.50
2022-10-09T08:34:03.037Z,10.23
2022-10-09T08:37:05.468Z,9.00
2022-10-09T08:40:17.389Z,10.10
2022-10-09T08:43:28.737Z,10.35
2022-10-09T08:47:16.776Z,9.27
2022-10-09T08:50:25.553Z,8.05
2022-10-09T08:53:30.987Z,8.07
2022-10-09T08:56:34.254Z,7.97
2022-10-09T08:59:37.056Z,8.15
2022-10-09T09:03:09.075Z,6.80
2022-10-09T09:06:21.314Z,6.68
2022-10-09T09:09:35.961Z,7.28
2022-10-09T09:12:53.847Z,6.43
2022-10-09T09:16:27.694Z,5.50
2022-10-09T09:20:20.938Z,5.90
2022-10-09T09:23:34.066Z,5.95
2022-10-09T09:26:37.035Z,7.05
2022-10-09T09:29:49.776Z,6.28
2022-10-09T09:33:19.502Z,6.30
2022-10-09T09:36:50.138Z,5.95
2022-10-09T09:40:34.838Z,6.40
2022-10-09T09:43:24.705Z,6.75
2022-10-09T09:46:30.390Z,5.53
2022-10-09T09:49:32.920Z,5.93
2022-10-09T09:52:39.905Z,5.45
2022-10-09T09:55:42.644Z,6.35
2022-10-09T09:58:48.866Z,8.70
2022-10-09T10:02:00.542Z,5.90
2022-10-09T10:05:16.769Z,5.50
2022-10-09T10:08:23.913Z,6.15
2022-10-09T10:11:26.935Z,6.50
2022-10-09T10:14:31.370Z,5.72
2022-10-09T10:17:36.887Z,5.85
2022-10-09T10:20:47.030Z,7.18
2022-10-09T10:24:03.732Z,5.62
2022-10-09T10:27:17.512Z,5.20
2022-10-09T10:30:20.317Z,5.53
2022-10-09T10:33:27.259Z,5.72
2022-10-09T10:36:30.114Z,5.73
2022-10-09T10:39:42.956Z,7.00
2022-10-09T10:42:48.448Z,5.75
2022-10-09T10:46:09.950Z,6.47
2022-10-09T10:49:18.579Z,6.45
2022-10-09T10:53:00.640Z,6.00
2022-10-09T10:56:14.578Z,5.62
2022-10-09T10:59:35.455Z,5.97
2022-10-09T11:03:13.029Z,6.35
2022-10-09T11:06:25.154Z,6.00
2022-10-09T11:09:59.813Z,5.62
2022-10-09T11:13:20.779Z,5.40
2022-10-09T11:16:56.520Z,4.95
2022-10-09T11:20:34.505Z,5.78
2022-10-09T11:24:12.490Z,7.18
2022-10-09T11:27:24.038Z,4.97
2022-10-09T11:30:30.672Z,4.62
2022-10-09T11:33:38.873Z,5.30
2022-10-09T11:36:44.457Z,4.87
2022-10-09T11:39:47.023Z,5.35
2022-10-09T11:43:00.430Z,5.55
2022-10-09T11:46:29.721Z,6.43
2022-10-09T11:50:10.696Z,5.57
2022-10-09T11:53:16.050Z,6.18
2022-10-09T11:56:23.011Z,6.55
2022-10-09T11:59:36.349Z,5.90
2022-10-09T12:02:40.770Z,6.37
2022-10-09T12:05:46.381Z,6.62
2022-10-09T12:09:08.298Z,7.78
2022-10-09T12:12:16.970Z,7.45
2022-10-09T12:15:36.752Z,6.22
2022-10-09T12:18:45.948Z,6.25
2022-10-09T12:22:17.074Z,6.28
2022-10-09T12:25:32.620Z,7.32
2022-10-09T12:28:37.603Z,6.53
2022-10-09T12:31:41.702Z,6.72
2022-10-09T12:34:49.841Z,7.12
2022-10-09T12:37:52.703Z,6.20
2022-10-09T12:40:58.856Z,5.80
2022-10-09T12:44:04.280Z,6.53
2022-10-09T12:47:14.632Z,7.03
2022-10-09T12:50:31.820Z,5.85
2022-10-09T12:53:34.347Z,5.85
2022-10-09T12:56:38.840Z,5.60
2022-10-09T12:59:43.564Z,6.55
2022-10-09T13:02:46.617Z,6.80
2022-10-09T13:05:49.713Z,5.93
2022-10-09T13:08:56.478Z,6.57
2022-10-09T13:12:09.019Z,7.25
2022-10-09T13:15:36.353Z,5.85
2022-10-09T13:18:38.920Z,7.87
2022-10-09T13:21:41.767Z,6.53
2022-10-09T13:24:44.529Z,8.25
2022-10-09T13:27:47.494Z,6.82
2022-10-09T13:30:50.827Z,6.45
2022-10-09T13:33:53.980Z,7.18
2022-10-09T13:36:57.012Z,8.43
2022-10-09T13:40:00.374Z,5.75
2022-10-09T13:43:03.154Z,6.05
2022-10-09T13:46:06.460Z,6.03
2022-10-09T13:49:09.052Z,6.40
2022-10-09T13:52:11.757Z,6.35
2022-10-09T13:55:14.789Z,8.15
2022-10-09T13:58:17.609Z,6.03
2022-10-09T14:01:20.187Z,6.95
2022-10-09T14:04:23.085Z,6.30
2022-10-09T14:07:25.564Z,8.20
2022-10-09T14:10:28.486Z,6.47
2022-10-09T14:13:30.979Z,6.60
2022-10-09T14:16:33.751Z,6.55
2022-10-09T14:19:36.387Z,6.00
2022-10-09T14:22:39.249Z,6.40
2022-10-09T14:25:41.820Z,6.53
2022-10-09T14:28:44.613Z,6.28
2022-10-09T14:31:50.943Z,5.72
2022-10-09T14:34:53.905Z,6.00
2022-10-09T14:37:56.432Z,6.43
2022-10-09T14:40:59.130Z,6.20
2022-10-09T14:44:01.574Z,5.85
2022-10-09T14:47:04.789Z,6.05
2022-10-09T14:50:07.989Z,5.97
2022-10-09T14:53:10.908Z,6.72
2022-10-09T14:56:21.090Z,7.80
2022-10-09T14:59:24.595Z,7.50
2022-10-09T15:02:26.985Z,6.12
2022-10-09T15:05:29.905Z,7.65
2022-10-09T15:08:34.735Z,6.72
2022-10-09T15:11:37.563Z,9.55
2022-10-09T15:14:39.956Z,7.85
2022-10-09T15:17:42.790Z,6.40
2022-10-09T15:20:45.783Z,8.10
2022-10-09T15:23:49.613Z,6.70
2022-10-09T15:26:52.052Z,7.05
2022-10-09T15:29:54.828Z,7.15
2022-10-09T15:33:01.139Z,7.82
2022-10-09T15:36:04.069Z,6.37
2022-10-09T15:39:08.887Z,5.97
2022-10-09T15:42:11.700Z,7.82
2022-10-09T15:45:14.129Z,7.22
2022-10-09T15:48:25.497Z,11.18
2022-10-09T15:51:29.994Z,7.35
2022-10-09T15:54:33.023Z,8.13
2022-10-09T15:57:35.538Z,9.00
2022-10-09T16:00:41.756Z,6.85
2022-10-09T16:03:45.020Z,6.97
2022-10-09T16:06:47.624Z,7.40
2022-10-09T16:09:50.361Z,6.85
2022-10-09T16:12:52.988Z,7.55
2022-10-09T16:15:55.911Z,7.57
2022-10-09T16:19:00.110Z,6.10
2022-10-09T16:22:02.892Z,5.28
2022-10-09T16:25:05.768Z,6.65
2022-10-09T16:28:11.635Z,6.37
2022-10-09T16:31:22.724Z,5.45
2022-10-09T16:34:25.457Z,5.82
2022-10-09T16:37:33.753Z,5.53
2022-10-09T16:41:01.269Z,8.77
2022-10-09T16:47:09.074Z,4.95
2022-10-09T16:50:12.296Z,5.72
2022-10-09T16:53:14.986Z,5.12
2022-10-09T16:56:20.169Z,5.45
2022-10-09T16:59:22.988Z,5.28
2022-10-09T17:02:25.833Z,4.78
2022-10-09T17:05:28.672Z,4.82
2022-10-09T17:08:31.516Z,5.35
2022-10-09T17:11:34.491Z,5.43
2022-10-09T17:17:41.005Z,4.97
2022-10-09T17:20:43.543Z,7.45
2022-10-09T17:23:46.643Z,4.87
2022-10-09T17:26:49.258Z,6.95
2022-10-09T17:29:52.102Z,6.22
2022-10-09T17:32:54.908Z,5.78
2022-10-09T17:35:57.930Z,7.00
2022-10-09T17:39:00.655Z,4.93
2022-10-09T17:42:03.524Z,8.68
2022-10-09T17:45:06.605Z,6.55
2022-10-09T17:48:10.095Z,5.75
2022-10-09T17:51:16.462Z,5.28
2022-10-09T17:54:19.226Z,5.87
2022-10-09T17:57:21.733Z,6.28
2022-10-09T18:00:24.580Z,5.80
2022-10-09T18:03:27.288Z,5.78
2022-10-09T18:06:34.850Z,4.62
2022-10-09T18:09:38.428Z,6.90
2022-10-09T18:12:40.945Z,5.10
2022-10-09T18:15:44.205Z,5.07
2022-10-09T18:18:46.914Z,4.50
2022-10-09T18:21:49.799Z,4.40
2022-10-09T18:24:52.337Z,6.28
2022-10-09T18:27:55.128Z,6.47
2022-10-09T18:30:58.696Z,4.87
2022-10-09T18:34:01.694Z,6.70
2022-10-09T18:37:04.172Z,4.82
2022-10-09T18:40:08.212Z,5.05
2022-10-09T18:43:10.750Z,4.87
2022-10-09T18:46:16.085Z,6.05
2022-10-09T18:49:22.690Z,4.05
2022-10-09T18:52:25.815Z,4.25
2022-10-09T18:55:28.446Z,4.45
2022-10-09T18:58:31.917Z,5.10
2022-10-09T19:01:34.740Z,3.37
2022-10-09T19:04:37.706Z,4.85
2022-10-09T19:07:40.555Z,4.43
2022-10-09T19:10:49.538Z,4.95
2022-10-09T19:13:52.324Z,5.37
2022-10-09T19:16:55.003Z,6.90
2022-10-09T19:19:57.535Z,6.28
2022-10-09T19:23:00.283Z,4.75
2022-10-09T19:26:02.795Z,4.65
2022-10-09T19:29:07.296Z,4.03
2022-10-09T19:32:09.806Z,4.03
2022-10-09T19:35:12.711Z,4.97
2022-10-09T19:38:16.092Z,3.65
2022-10-09T19:41:18.955Z,6.00
2022-10-09T19:44:21.652Z,4.97
2022-10-09T19:47:24.637Z,5.10
2022-10-09T19:50:27.169Z,6.18
2022-10-09T19:53:29.956Z,6.87
2022-10-09T19:56:34.034Z,4.25
2022-10-09T19:59:36.778Z,6.43
2022-10-09T20:02:40.189Z,5.40
2022-10-09T20:05:43.799Z,3.83
2022-10-09T20:08:46.320Z,3.97
2022-10-09T20:11:50.036Z,4.05
2022-10-09T20:14:52.514Z,5.45
2022-10-09T20:17:55.457Z,5.25
2022-10-09T20:20:58.799Z,4.00
2022-10-09T20:24:01.832Z,6.22
2022-10-09T20:27:04.416Z,3.90
2022-10-09T20:30:08.014Z,5.75
2022-10-09T20:33:10.513Z,3.92
2022-10-09T20:36:31.845Z,3.58
2022-10-09T20:39:34.403Z,3.92
2022-10-09T20:42:37.169Z,4.20
2022-10-09T20:45:40.953Z,3.03
2022-10-09T20:48:44.491Z,2.70
2022-10-09T20:51:47.032Z,4.07
2022-10-09T20:54:49.937Z,3.03
2022-10-09T20:57:54.935Z,4.03
2022-10-09T21:00:58.235Z,4.07
2022-10-09T21:04:00.654Z,3.33
2022-10-09T21:07:03.302Z,3.45
2022-10-09T21:10:09.329Z,3.47
2022-10-09T21:13:12.782Z,2.65
2022-10-09T21:16:22.223Z,2.72
2022-10-09T21:19:24.939Z,2.53
2022-10-09T21:22:27.405Z,3.78
2022-10-09T21:25:30.204Z,2.20
2022-10-09T21:28:32.740Z,3.78
2022-10-09T21:31:35.534Z,2.42
2022-10-09T21:34:38.029Z,3.50
2022-10-09T21:37:40.809Z,2.25
2022-10-09T21:40:43.992Z,3.37
2022-10-09T21:43:46.696Z,3.95
2022-10-09T21:46:49.138Z,2.05
2022-10-09T21:49:52.600Z,2.37
2022-10-09T21:52:55.039Z,3.08
2022-10-09T21:55:57.952Z,1.48
2022-10-09T21:59:00.676Z,3.45
2022-10-09T22:02:03.999Z,2.47
2022-10-09T22:05:06.957Z,3.33
2022-10-09T22:08:09.410Z,1.73
2022-10-09T22:11:12.256Z,3.20
2022-10-09T22:14:15.022Z,1.83
2022-10-09T22:17:20.131Z,1.83
2022-10-09T22:20:22.564Z,1.95
2022-10-09T22:23:25.266Z,2.42
2022-10-09T22:26:27.991Z,2.45
2022-10-09T22:29:31.023Z,3.58
2022-10-09T22:32:33.459Z,2.22
2022-10-09T22:35:36.213Z,2.58
2022-10-09T22:38:39.267Z,1.58
2022-10-09T22:41:41.954Z,2.00
2022-10-09T22:44:44.392Z,2.05
2022-10-09T22:47:47.855Z,1.48
2022-10-09T22:50:50.514Z,1.67
2022-10-09T22:53:54.352Z,1.25
2022-10-09T22:56:56.966Z,2.55
2022-10-09T22:59:59.722Z,1.25
2022-10-09T23:03:02.134Z,2.00
2022-10-09T23:06:07.464Z,1.65
2022-10-09T23:09:13.369Z,2.08
2022-10-09T23:12:16.142Z,1.52
2022-10-09T23:15:18.518Z,1.77
2022-10-09T23:18:21.459Z,4.20
2022-10-09T23:21:24.033Z,1.27
2022-10-09T23:24:26.776Z,1.90
2022-10-09T23:27:29.219Z,1.77
2022-10-09T23:30:32.341Z,2.17
2022-10-09T23:33:35.214Z,1.35
2022-10-09T23:36:38.219Z,1.75
2022-10-09T23:39:40.633Z,2.62
2022-10-09T23:42:43.403Z,3.03
2022-10-09T23:45:45.874Z,1.77
2022-10-09T23:48:49.595Z,3.08
2022-10-09T23:51:52.011Z,3.42
2022-10-09T23:54:54.717Z,1.65
2022-10-09T23:57:57.162Z,2.58
